createdAt,value
2023-05-25T00:01:01.750Z,87569.13
2023-05-25T00:03:32.343Z,87561.22
2023-05-25T00:06:00.764Z,87568.38
2023-05-25T00:08:29.234Z,87563.47
2023-05-25T00:10:56.684Z,87566.84
2023-05-25T00:13:24.128Z,87567.22
2023-05-25T00:15:51.880Z,87568.72
2023-05-25T00:18:19.271Z,87566.47
2023-05-25T00:20:46.794Z,87566.44
2023-05-25T00:23:14.318Z,87561.94
2023-05-25T00:25:42.347Z,87555.47
2023-05-25T00:28:12.084Z,87563.41
2023-05-25T00:30:39.769Z,87558.13
2023-05-25T00:33:07.303Z,87553.22
2023-05-25T00:35:34.765Z,87554.75
2023-05-25T00:38:02.169Z,87552.50
2023-05-25T00:40:30.089Z,87553.63
2023-05-25T00:42:59.854Z,87546.81
2023-05-25T00:45:27.249Z,87548.34
2023-05-25T00:47:55.727Z,87549.50
2023-05-25T00:50:41.760Z,87545.31
2023-05-25T00:53:11.474Z,87554.00
2023-05-25T00:56:05.111Z,87558.91
2023-05-25T00:58:35.884Z,87553.63
2023-05-25T01:01:06.166Z,87555.16
2023-05-25T01:03:38.305Z,87563.06
2023-05-25T01:06:14.516Z,87560.78
2023-05-25T01:08:51.251Z,87564.19
2023-05-25T01:11:28.131Z,87561.94
2023-05-25T01:13:58.335Z,87569.50
2023-05-25T01:16:26.367Z,87570.63
2023-05-25T01:18:53.952Z,87573.28
2023-05-25T01:21:51.892Z,87580.81
2023-05-25T01:24:30.677Z,87578.16
2023-05-25T01:27:43.424Z,87592.13
2023-05-25T01:30:15.231Z,87587.97
2023-05-25T01:32:45.244Z,87587.59
2023-05-25T01:35:14.764Z,87578.16
2023-05-25T01:37:49.940Z,87576.66
2023-05-25T01:40:17.611Z,87565.31
2023-05-25T01:42:45.123Z,87568.72
2023-05-25T01:45:14.996Z,87570.22
2023-05-25T01:48:24.508Z,87573.25
2023-05-25T01:51:05.028Z,87575.88
2023-05-25T01:53:43.743Z,87575.50
2023-05-25T01:56:14.367Z,87576.63
2023-05-25T01:58:48.814Z,87580.03
2023-05-25T02:01:18.441Z,87586.81
2023-05-25T02:03:49.310Z,87590.97
2023-05-25T02:06:17.320Z,87588.72
2023-05-25T02:08:44.765Z,87590.59
2023-05-25T02:11:14.812Z,87590.25
2023-05-25T02:13:42.233Z,87594.38
2023-05-25T02:16:09.838Z,87589.44
2023-05-25T02:18:37.300Z,87587.19
2023-05-25T02:21:04.931Z,87589.06
2023-05-25T02:23:32.435Z,87594.75
2023-05-25T02:26:02.495Z,87594.34
2023-05-25T02:28:29.882Z,87596.66
2023-05-25T02:30:57.429Z,87595.13
2023-05-25T02:33:24.741Z,87584.56
2023-05-25T02:35:52.161Z,87586.03
2023-05-25T02:38:19.661Z,87589.81
2023-05-25T02:40:46.952Z,87587.56
2023-05-25T02:43:14.360Z,87596.63
2023-05-25T02:45:41.658Z,87589.03
2023-05-25T02:48:09.473Z,87591.34
2023-05-25T02:50:36.851Z,87600.75
2023-05-25T02:53:04.845Z,87594.34
2023-05-25T02:55:32.679Z,87601.53
2023-05-25T02:58:00.225Z,87592.84
2023-05-25T03:00:27.609Z,87612.09
2023-05-25T03:02:54.952Z,87606.03
2023-05-25T03:05:22.486Z,87604.94
2023-05-25T03:07:50.206Z,87612.84
2023-05-25T03:10:17.670Z,87615.84
2023-05-25T03:12:44.967Z,87630.56
2023-05-25T03:15:12.360Z,87629.44
2023-05-25T03:17:39.833Z,87626.03
2023-05-25T03:20:08.516Z,87625.69
2023-05-25T03:22:36.202Z,87625.28
2023-05-25T03:25:04.399Z,87620.75
2023-05-25T03:27:31.803Z,87623.75
2023-05-25T03:29:59.098Z,87629.03
2023-05-25T03:32:26.645Z,87641.50
2023-05-25T03:34:54.066Z,87637.66
2023-05-25T03:37:21.460Z,87639.63
2023-05-25T03:39:48.901Z,87648.28
2023-05-25T03:42:16.421Z,87654.31
2023-05-25T03:44:43.692Z,87651.66
2023-05-25T03:47:11.448Z,87653.59
2023-05-25T03:49:38.913Z,87652.44
2023-05-25T03:52:07.035Z,87662.97
2023-05-25T03:54:34.547Z,87669.00
2023-05-25T03:57:02.139Z,87666.03
2023-05-25T03:59:29.799Z,87672.41
2023-05-25T04:01:57.172Z,87681.88
2023-05-25T04:04:24.569Z,87679.22
2023-05-25T04:06:51.992Z,87679.63
2023-05-25T04:09:19.368Z,87680.72
2023-05-25T04:11:46.979Z,87681.84
2023-05-25T04:14:14.749Z,87686.00
2023-05-25T04:16:42.273Z,87690.19
2023-05-25T04:19:09.648Z,87691.31
2023-05-25T04:21:37.100Z,87689.78
2023-05-25T04:24:04.578Z,87699.59
2023-05-25T04:26:31.952Z,87690.91
2023-05-25T04:28:59.300Z,87703.78
2023-05-25T04:31:26.734Z,87697.72
2023-05-25T04:33:54.083Z,87698.47
2023-05-25T04:36:21.825Z,87709.81
2023-05-25T04:38:49.317Z,87704.16
2023-05-25T04:41:16.942Z,87712.06
2023-05-25T04:43:52.823Z,87711.72
2023-05-25T04:46:31.871Z,87700.00
2023-05-25T04:48:59.653Z,87706.44
2023-05-25T04:51:26.890Z,87714.75
2023-05-25T04:53:54.349Z,87718.91
2023-05-25T04:56:24.391Z,87721.19
2023-05-25T04:58:52.179Z,87722.34
2023-05-25T05:01:19.515Z,87720.81
2023-05-25T05:03:47.157Z,87723.84
2023-05-25T05:06:14.857Z,87725.72
2023-05-25T05:08:42.139Z,87733.66
2023-05-25T05:11:09.625Z,87740.06
2023-05-25T05:13:36.957Z,87737.06
2023-05-25T05:16:04.578Z,87739.72
2023-05-25T05:18:32.104Z,87751.41
2023-05-25T05:20:59.351Z,87751.03
2023-05-25T05:23:26.712Z,87751.03
2023-05-25T05:25:53.974Z,87753.31
2023-05-25T05:28:21.513Z,87752.56
2023-05-25T05:30:48.896Z,87762.41
2023-05-25T05:33:16.685Z,87757.50
2023-05-25T05:35:45.062Z,87762.78
2023-05-25T05:38:12.534Z,87763.53
2023-05-25T05:40:39.957Z,87769.59
2023-05-25T05:43:07.239Z,87769.59
2023-05-25T05:45:34.744Z,87778.66
2023-05-25T05:48:02.098Z,87776.78
2023-05-25T05:50:29.407Z,87775.66
2023-05-25T05:52:56.941Z,87778.72
2023-05-25T05:55:24.605Z,87782.84
2023-05-25T05:57:51.985Z,87788.53
2023-05-25T06:00:19.889Z,87793.75
2023-05-25T06:02:47.620Z,87790.00
2023-05-25T06:05:15.262Z,87796.06
2023-05-25T06:07:43.013Z,87799.09
2023-05-25T06:10:10.680Z,87803.31
2023-05-25T06:12:38.167Z,87802.53
2023-05-25T06:15:06.424Z,87812.38
2023-05-25T06:17:34.309Z,87799.56
2023-05-25T06:20:01.835Z,87804.50
2023-05-25T06:22:29.118Z,87806.03
2023-05-25T06:24:56.432Z,87802.63
2023-05-25T06:27:23.832Z,87814.00
2023-05-25T06:29:51.517Z,87812.09
2023-05-25T06:32:18.926Z,87815.50
2023-05-25T06:34:46.435Z,87808.72
2023-05-25T06:37:13.701Z,87809.88
2023-05-25T06:39:40.974Z,87801.19
2023-05-25T06:42:08.614Z,87811.78
2023-05-25T06:44:35.870Z,87802.72
2023-05-25T06:47:03.515Z,87797.88
2023-05-25T06:49:30.928Z,87803.16
2023-05-25T06:51:58.284Z,87792.97
2023-05-25T06:54:25.645Z,87789.56
2023-05-25T06:56:53.006Z,87786.19
2023-05-25T06:59:20.334Z,87788.81
2023-05-25T07:01:47.850Z,87791.88
2023-05-25T07:04:15.233Z,87785.09
2023-05-25T07:06:42.534Z,87791.91
2023-05-25T07:09:10.140Z,87780.19
2023-05-25T07:11:37.510Z,87789.63
2023-05-25T07:14:04.775Z,87787.00
2023-05-25T07:16:32.219Z,87788.91
2023-05-25T07:19:00.528Z,87783.59
2023-05-25T07:21:32.201Z,87785.88
2023-05-25T07:23:59.581Z,87788.53
2023-05-25T07:26:27.034Z,87781.69
2023-05-25T07:28:54.597Z,87784.34
2023-05-25T07:31:21.986Z,87790.44
2023-05-25T07:33:49.447Z,87793.81
2023-05-25T07:36:17.751Z,87784.38
2023-05-25T07:38:46.417Z,87793.41
2023-05-25T07:41:14.156Z,87790.38
2023-05-25T07:43:43.685Z,87790.38
2023-05-25T07:46:11.045Z,87796.09
2023-05-25T07:48:38.678Z,87795.34
2023-05-25T07:51:06.148Z,87797.22
2023-05-25T07:53:33.712Z,87799.13
2023-05-25T07:56:01.325Z,87791.50
2023-05-25T07:58:28.961Z,87789.22
2023-05-25T08:00:56.509Z,87788.06
2023-05-25T08:03:31.742Z,87791.50
2023-05-25T08:06:03.725Z,87788.44
2023-05-25T08:08:31.202Z,87788.81
2023-05-25T08:14:57.950Z,87777.34
2023-05-25T08:17:25.579Z,87781.84
2023-05-25T08:19:55.179Z,87783.69
2023-05-25T08:22:22.825Z,87786.69
2023-05-25T08:24:50.215Z,87785.16
2023-05-25T08:27:18.624Z,87785.91
2023-05-25T08:29:45.902Z,87782.47
2023-05-25T08:32:13.242Z,87789.66
2023-05-25T08:34:40.767Z,87777.84
2023-05-25T08:37:08.079Z,87782.78
2023-05-25T08:39:35.421Z,87785.34
2023-05-25T08:42:02.792Z,87780.00
2023-05-25T08:44:30.866Z,87769.72
2023-05-25T08:47:08.024Z,87779.97
2023-05-25T08:49:39.772Z,87773.84
2023-05-25T08:52:13.876Z,87771.25
2023-05-25T08:54:45.806Z,87775.50
2023-05-25T08:57:31.762Z,87773.16
2023-05-25T09:00:08.586Z,87767.78
2023-05-25T09:02:50.830Z,87774.25
2023-05-25T09:05:19.274Z,87769.22
2023-05-25T09:07:47.878Z,87778.66
2023-05-25T09:10:15.653Z,87776.72
2023-05-25T09:12:43.680Z,87773.19
2023-05-25T09:15:12.097Z,87769.72
2023-05-25T09:17:40.835Z,87782.63
2023-05-25T09:20:12.876Z,87779.91
2023-05-25T09:22:42.167Z,87778.34
2023-05-25T09:25:11.666Z,87782.94
2023-05-25T09:27:39.725Z,87792.69
2023-05-25T09:30:08.364Z,87787.81
2023-05-25T09:32:36.593Z,87786.69
2023-05-25T09:35:13.489Z,87795.72
2023-05-25T09:37:42.570Z,87796.13
2023-05-25T09:40:11.128Z,87796.53
2023-05-25T09:42:38.941Z,87802.19
2023-05-25T09:45:07.114Z,87801.06
2023-05-25T09:47:37.294Z,87794.88
2023-05-25T09:50:05.916Z,87800.13
2023-05-25T09:52:33.463Z,87801.59
2023-05-25T09:55:02.968Z,87807.22
2023-05-25T09:57:30.378Z,87803.13
2023-05-25T09:59:57.867Z,87803.50
2023-05-25T10:02:25.449Z,87796.22
2023-05-25T10:04:52.919Z,87790.13
2023-05-25T10:07:20.751Z,87797.69
2023-05-25T10:09:51.168Z,87791.19
2023-05-25T10:12:22.011Z,87806.66
2023-05-25T10:14:53.469Z,87795.66
2023-05-25T10:17:24.488Z,87801.75
2023-05-25T10:20:01.216Z,87805.56
2023-05-25T10:22:47.625Z,87801.25
2023-05-25T10:25:31.756Z,87805.31
2023-05-25T10:28:36.701Z,87805.47
2023-05-25T10:31:05.502Z,87791.22
2023-05-25T10:33:34.109Z,87789.50
2023-05-25T10:36:10.746Z,87792.69
2023-05-25T10:38:41.188Z,87790.94
2023-05-25T10:41:11.587Z,87786.41
2023-05-25T10:43:40.350Z,87790.94
2023-05-25T10:46:08.872Z,87787.69
2023-05-25T10:48:46.320Z,87795.44
2023-05-25T10:51:13.747Z,87787.34
2023-05-25T10:53:59.991Z,87783.09
2023-05-25T10:56:27.392Z,87788.03
2023-05-25T10:58:54.832Z,87779.56
2023-05-25T11:01:22.839Z,87774.94
2023-05-25T11:04:14.882Z,87778.03
2023-05-25T11:07:02.103Z,87777.19
2023-05-25T11:09:31.656Z,87769.63
2023-05-25T11:11:58.871Z,87777.41
2023-05-25T11:14:34.965Z,87777.00
2023-05-25T11:17:20.519Z,87777.72
2023-05-25T11:19:55.189Z,87776.09
2023-05-25T11:22:35.798Z,87779.81
2023-05-25T11:25:37.639Z,87776.31
2023-05-25T11:28:07.214Z,87776.31
2023-05-25T11:30:35.329Z,87781.88
2023-05-25T11:33:04.543Z,87783.56
2023-05-25T11:35:33.093Z,87781.28
2023-05-25T11:38:01.098Z,87777.53
2023-05-25T11:40:31.900Z,87778.56
2023-05-25T11:43:02.096Z,87778.25
2023-05-25T11:45:33.248Z,87777.03
2023-05-25T11:48:00.961Z,87777.00
2023-05-25T11:50:28.372Z,87776.94
2023-05-25T11:52:56.108Z,87778.41
2023-05-25T11:55:23.581Z,87782.19
2023-05-25T11:57:58.522Z,87770.28
2023-05-25T12:00:27.981Z,87766.75
2023-05-25T12:02:55.971Z,87769.72
2023-05-25T12:05:23.517Z,87767.94
2023-05-25T12:07:52.723Z,87766.47
2023-05-25T12:10:20.157Z,87759.97
2023-05-25T12:12:52.948Z,87758.94
2023-05-25T12:15:25.338Z,87757.59
2023-05-25T12:17:54.522Z,87753.94
2023-05-25T12:20:22.751Z,87755.03
2023-05-25T12:22:50.350Z,87750.34
2023-05-25T12:25:21.735Z,87748.19
2023-05-25T12:27:49.388Z,87740.91
2023-05-25T12:30:16.946Z,87740.78
2023-05-25T12:33:03.424Z,87738.06
2023-05-25T12:35:48.656Z,87737.50
2023-05-25T12:38:20.917Z,87735.75
2023-05-25T12:41:05.151Z,87733.97
2023-05-25T12:43:40.767Z,87734.72
2023-05-25T12:46:08.382Z,87723.00
2023-05-25T12:48:35.863Z,87723.31
2023-05-25T12:51:03.527Z,87726.50
2023-05-25T12:53:31.357Z,87720.28
2023-05-25T12:56:03.622Z,87723.56
2023-05-25T12:58:31.281Z,87717.16
2023-05-25T13:00:59.004Z,87722.19
2023-05-25T13:03:29.175Z,87712.66
2023-05-25T13:06:02.381Z,87717.22
2023-05-25T13:08:30.424Z,87719.97
2023-05-25T13:10:57.970Z,87712.69
2023-05-25T13:13:25.409Z,87706.03
2023-05-25T13:15:53.013Z,87700.41
2023-05-25T13:18:20.748Z,87702.25
2023-05-25T13:20:51.272Z,87704.50
2023-05-25T13:23:20.807Z,87695.97
2023-05-25T13:25:48.081Z,87690.06
2023-05-25T13:28:15.331Z,87695.78
2023-05-25T13:30:43.574Z,87684.72
2023-05-25T13:33:11.381Z,87678.00
2023-05-25T13:35:38.704Z,87683.88
2023-05-25T13:38:06.046Z,87675.94
2023-05-25T13:40:33.326Z,87680.19
2023-05-25T13:43:00.674Z,87677.53
2023-05-25T13:45:27.965Z,87677.44
2023-05-25T13:47:55.568Z,87675.91
2023-05-25T13:50:23.067Z,87673.97
2023-05-25T13:52:50.367Z,87676.09
2023-05-25T13:55:17.992Z,87669.03
2023-05-25T13:57:45.230Z,87659.47
2023-05-25T14:00:13.346Z,87666.50
2023-05-25T14:02:40.965Z,87664.25
2023-05-25T14:05:08.795Z,87667.38
2023-05-25T14:07:36.152Z,87670.38
2023-05-25T14:10:06.417Z,87658.56
2023-05-25T14:12:33.848Z,87657.50
2023-05-25T14:15:01.197Z,87651.66
2023-05-25T14:17:28.771Z,87650.47
2023-05-25T14:19:56.316Z,87647.00
2023-05-25T14:22:24.134Z,87647.75
2023-05-25T14:24:52.983Z,87642.91
2023-05-25T14:27:20.598Z,87650.53
2023-05-25T14:29:50.470Z,87645.69
2023-05-25T14:32:21.208Z,87633.66
2023-05-25T14:34:48.566Z,87635.28
2023-05-25T14:37:15.839Z,87631.78
2023-05-25T14:39:43.138Z,87633.06
2023-05-25T14:42:10.560Z,87641.94
2023-05-25T14:44:37.892Z,87636.47
2023-05-25T14:47:06.055Z,87633.91
2023-05-25T14:49:33.417Z,87635.91
2023-05-25T14:52:00.744Z,87631.97
2023-05-25T14:54:28.035Z,87625.84
2023-05-25T14:56:55.421Z,87622.22
2023-05-25T14:59:22.805Z,87617.63
2023-05-25T15:01:50.266Z,87627.13
2023-05-25T15:04:17.615Z,87617.03
2023-05-25T15:06:45.202Z,87614.47
2023-05-25T15:09:12.812Z,87623.31
2023-05-25T15:11:40.133Z,87626.44
2023-05-25T15:14:07.543Z,87617.13
2023-05-25T15:16:35.170Z,87616.78
2023-05-25T15:19:02.865Z,87619.78
2023-05-25T15:21:30.212Z,87615.13
2023-05-25T15:23:57.477Z,87615.22
2023-05-25T15:26:24.783Z,87615.41
2023-05-25T15:28:52.314Z,87608.94
2023-05-25T15:31:19.608Z,87622.94
2023-05-25T15:33:54.321Z,87606.47
2023-05-25T15:36:26.027Z,87608.53
2023-05-25T15:38:53.347Z,87611.91
2023-05-25T15:41:20.675Z,87610.06
2023-05-25T15:43:56.119Z,87597.44
2023-05-25T15:46:24.386Z,87603.78
2023-05-25T15:48:51.822Z,87605.06
2023-05-25T15:51:19.721Z,87599.53
2023-05-25T15:53:47.610Z,87605.34
2023-05-25T15:56:14.983Z,87593.75
2023-05-25T15:58:42.493Z,87597.19
2023-05-25T16:01:11.267Z,87599.59
2023-05-25T16:03:40.625Z,87595.25
2023-05-25T16:06:08.479Z,87600.63
2023-05-25T16:08:35.775Z,87600.63
2023-05-25T16:11:03.450Z,87603.50
2023-05-25T16:13:31.370Z,87603.19
2023-05-25T16:15:58.747Z,87601.78
2023-05-25T16:18:26.133Z,87603.75
2023-05-25T16:20:53.614Z,87603.31
2023-05-25T16:23:21.239Z,87612.66
2023-05-25T16:25:48.534Z,87606.25
2023-05-25T16:28:16.803Z,87611.19
2023-05-25T16:30:44.131Z,87614.50
2023-05-25T16:33:11.837Z,87622.00
2023-05-25T16:35:39.371Z,87614.59
2023-05-25T16:38:06.713Z,87607.22
2023-05-25T16:40:34.215Z,87613.16
2023-05-25T16:43:01.795Z,87618.16
2023-05-25T16:45:31.634Z,87611.03
2023-05-25T16:47:59.064Z,87619.22
2023-05-25T16:50:26.354Z,87609.13
2023-05-25T16:52:53.766Z,87617.88
2023-05-25T16:55:21.153Z,87615.88
2023-05-25T16:57:48.617Z,87613.81
2023-05-25T17:00:16.690Z,87614.63
2023-05-25T17:02:45.587Z,87612.94
2023-05-25T17:05:13.016Z,87618.97
2023-05-25T17:07:40.665Z,87618.59
2023-05-25T17:10:09.008Z,87615.19
2023-05-25T17:12:37.563Z,87614.13
2023-05-25T17:15:05.752Z,87620.69
2023-05-25T17:17:33.138Z,87616.94
2023-05-25T17:20:00.632Z,87611.66
2023-05-25T17:22:33.749Z,87615.56
2023-05-25T17:25:01.817Z,87603.53
2023-05-25T17:27:29.286Z,87615.78
2023-05-25T17:29:56.825Z,87613.94
2023-05-25T17:32:24.179Z,87615.31
2023-05-25T17:34:51.590Z,87612.97
2023-05-25T17:37:19.212Z,87609.97
2023-05-25T17:39:48.243Z,87609.31
2023-05-25T17:42:16.072Z,87614.38
2023-05-25T17:44:43.413Z,87611.66
2023-05-25T17:47:11.468Z,87613.72
2023-05-25T17:49:38.874Z,87619.59
2023-05-25T17:52:06.375Z,87630.97
2023-05-25T17:54:35.139Z,87618.75
2023-05-25T17:57:03.170Z,87621.44
2023-05-25T17:59:30.539Z,87637.69
2023-05-25T18:01:58.090Z,87619.56
2023-05-25T18:04:25.519Z,87628.94
2023-05-25T18:06:52.739Z,87626.47
2023-05-25T18:09:20.360Z,87633.22
2023-05-25T18:11:48.113Z,87638.56
2023-05-25T18:14:15.678Z,87642.63
2023-05-25T18:16:43.313Z,87648.19
2023-05-25T18:19:11.442Z,87657.56
2023-05-25T18:21:38.837Z,87662.16
2023-05-25T18:24:07.517Z,87662.75
2023-05-25T18:26:35.517Z,87655.38
2023-05-25T18:29:02.910Z,87671.25
2023-05-25T18:31:30.826Z,87671.41
2023-05-25T18:33:59.440Z,87673.81
2023-05-25T18:36:27.026Z,87674.03
2023-05-25T18:38:54.493Z,87691.38
2023-05-25T18:41:21.891Z,87688.16
2023-05-25T18:43:49.206Z,87689.84
2023-05-25T18:46:16.583Z,87697.56
2023-05-25T18:48:44.151Z,87697.38
2023-05-25T18:51:11.661Z,87699.06
2023-05-25T18:53:39.122Z,87701.88
2023-05-25T18:56:06.880Z,87707.84
2023-05-25T18:58:34.270Z,87711.75
2023-05-25T19:01:01.544Z,87712.63
2023-05-25T19:03:28.980Z,87722.66
2023-05-25T19:05:56.428Z,87720.88
2023-05-25T19:08:23.772Z,87730.53
2023-05-25T19:10:51.170Z,87740.19
2023-05-25T19:13:19.116Z,87744.06
2023-05-25T19:15:46.900Z,87745.75
2023-05-25T19:18:14.540Z,87748.50
2023-05-25T19:20:42.409Z,87749.72
2023-05-25T19:23:10.062Z,87758.53
2023-05-25T19:25:37.331Z,87762.41
2023-05-25T19:28:04.926Z,87764.81
2023-05-25T19:30:32.301Z,87765.75
2023-05-25T19:32:59.779Z,87770.34
2023-05-25T19:35:27.261Z,87771.53
2023-05-25T19:37:54.640Z,87777.72
2023-05-25T19:40:22.068Z,87786.09
2023-05-25T19:42:49.946Z,87777.38
2023-05-25T19:45:17.266Z,87783.47
2023-05-25T19:47:45.425Z,87789.59
2023-05-25T19:50:13.132Z,87797.25
2023-05-25T19:52:40.510Z,87791.56
2023-05-25T19:55:08.104Z,87795.47
2023-05-25T19:57:35.478Z,87796.25
2023-05-25T20:00:03.785Z,87800.13
2023-05-25T20:02:32.093Z,87798.28
2023-05-25T20:04:59.722Z,87805.13
2023-05-25T20:07:27.052Z,87800.59
2023-05-25T20:09:54.386Z,87803.66
2023-05-25T20:12:21.643Z,87804.47
2023-05-25T20:14:49.296Z,87808.31
2023-05-25T20:17:16.560Z,87809.47
2023-05-25T20:19:43.850Z,87814.09
2023-05-25T20:22:11.180Z,87815.69
2023-05-25T20:24:38.934Z,87821.09
2023-05-25T20:27:06.700Z,87818.06
2023-05-25T20:29:34.241Z,87820.78
2023-05-25T20:32:01.683Z,87818.50
2023-05-25T20:34:29.031Z,87825.78
2023-05-25T20:36:56.436Z,87828.44
2023-05-25T20:39:23.731Z,87829.22
2023-05-25T20:41:51.049Z,87828.16
2023-05-25T20:44:18.408Z,87826.28
2023-05-25T20:46:45.719Z,87831.25
2023-05-25T20:49:13.004Z,87827.09
2023-05-25T20:51:41.794Z,87831.69
2023-05-25T20:54:09.182Z,87837.03
2023-05-25T20:56:36.540Z,87830.22
2023-05-25T20:59:03.901Z,87834.06
2023-05-25T21:01:31.301Z,87837.09
2023-05-25T21:03:58.890Z,87834.06
2023-05-25T21:06:26.380Z,87833.31
2023-05-25T21:08:53.662Z,87839.47
2023-05-25T21:11:21.504Z,87837.19
2023-05-25T21:13:49.371Z,87836.06
2023-05-25T21:16:17.017Z,87844.47
2023-05-25T21:18:44.927Z,87842.59
2023-05-25T21:21:12.729Z,87842.22
2023-05-25T21:23:40.472Z,87851.34
2023-05-25T21:26:08.355Z,87847.56
2023-05-25T21:28:36.052Z,87847.19
2023-05-25T21:31:03.682Z,87847.25
2023-05-25T21:33:31.649Z,87851.84
2023-05-25T21:35:59.233Z,87848.81
2023-05-25T21:38:26.776Z,87856.03
2023-05-25T21:40:54.499Z,87856.81
2023-05-25T21:43:22.318Z,87855.69
2023-05-25T21:45:49.990Z,87846.97
2023-05-25T21:48:17.648Z,87857.59
2023-05-25T21:50:45.297Z,87857.25
2023-05-25T21:53:13.258Z,87860.31
2023-05-25T21:55:40.871Z,87867.97
2023-05-25T21:58:08.682Z,87866.84
2023-05-25T22:00:36.090Z,87864.97
2023-05-25T22:03:04.092Z,87870.69
2023-05-25T22:05:31.623Z,87871.50
2023-05-25T22:07:58.833Z,87871.88
2023-05-25T22:10:26.100Z,87877.97
2023-05-25T22:12:53.594Z,87871.91
2023-05-25T22:15:21.079Z,87874.97
2023-05-25T22:17:48.456Z,87872.72
2023-05-25T22:20:18.205Z,87884.13
2023-05-25T22:22:45.698Z,87876.16
2023-05-25T22:25:13.338Z,87878.44
2023-05-25T22:27:40.937Z,87881.13
2023-05-25T22:30:09.450Z,87881.91
2023-05-25T22:32:36.997Z,87884.19
2023-05-25T22:35:04.772Z,87885.72
2023-05-25T22:37:32.029Z,87874.72
2023-05-25T22:39:59.274Z,87878.50
2023-05-25T22:42:26.693Z,87869.44
2023-05-25T22:44:54.027Z,87873.22
2023-05-25T22:47:21.380Z,87872.09
2023-05-25T22:49:48.734Z,87871.72
2023-05-25T22:52:16.098Z,87882.00
2023-05-25T22:54:43.695Z,87878.94
2023-05-25T22:57:11.489Z,87883.13
2023-05-25T22:59:39.157Z,87889.59
2023-05-25T23:02:06.987Z,87885.81
2023-05-25T23:04:35.957Z,87888.09
2023-05-25T23:07:03.865Z,87889.22
2023-05-25T23:09:31.585Z,87881.63
2023-05-25T23:11:59.105Z,87880.50
2023-05-25T23:14:26.774Z,87882.03
2023-05-25T23:16:54.478Z,87890.75
2023-05-25T23:19:22.188Z,87883.56
2023-05-25T23:21:50.169Z,87879.41
2023-05-25T23:24:18.014Z,87886.22
2023-05-25T23:26:45.614Z,87885.47
2023-05-25T23:29:13.335Z,87882.06
2023-05-25T23:31:41.237Z,87882.06
2023-05-25T23:34:08.836Z,87877.53
2023-05-25T23:36:36.414Z,87882.44
2023-05-25T23:39:04.294Z,87882.44
2023-05-25T23:41:32.019Z,87876.00
2023-05-25T23:43:59.582Z,87879.00
2023-05-25T23:46:27.373Z,87874.09
2023-05-25T23:48:55.050Z,87872.94
2023-05-25T23:51:22.647Z,87874.09
2023-05-25T23:53:50.616Z,87881.66
2023-05-25T23:56:18.579Z,87880.53
2023-05-25T23:58:46.161Z,87877.50
